Mohawk, Tennessee
Current Conditions -  °F | °C
As of 6:15 PM on Thursday 20 Nov 2014 (Local Time) from KMOR Reporting Station
Clear Clear  
Wind Chill: 43°   Ceiling: Unl
Heat Index: 46°   Visibility: 10mi
Dew Point: 21°   Wind: 7mph
Humidity: 37%   Direction: 270°W
Pressure: 30.14"   Gusts: NA
Location:  36.2°N, 83.05°W
Report Text: KMOR 202315Z AUTO 27006KT 10SM CLR 08/M06 A3014 RMK
Loading
Personal Weather Stations






























Interactive Weather Map New forecast layout! Learn more

10-Day Weather Forecast

Advertisements
Track Severe Weather on mobile